• Join FlightAware (Why Join?)
  • Login
  • US Flag 
11:18AM EDT


 

Airport Tracker/Info


-or-


 

Live Flight TrackerFlight Track Log ✈ N9231H ✈ 08-May-2014 ✈ KTMB - KFMY

Flight Track Log - Related Links

Times and Time Zones

All times are in EDT time to prevent confusion due to time zone crossing. See the N9231H flight status page for this flight to view local times or setup timezone preferences in your user account.

Time Position Orientation Groundspeed Altitude Reporting Facility
EDT Latitude Longitude Course Direction KTS MPH feet Rate Location/Type
02:13PM 25.6531 -80.4250 41° Northeast 52 60 400  Level Miami Center
02:15PM 25.6644 -80.4142 41° Northeast 84 97 1,000 420 Climbing Miami Center
02:16PM 25.6731 -80.4403 290° West 99 114 1,300 240 Climbing Miami Center
02:17PM 25.6692 -80.4678 261° West 92 106 1,500 180 Climbing Miami Center
02:18PM 25.6653 -80.4975 262° West 115 132 1,700 60 Climbing Miami Center
02:19PM 25.6650 -80.5322 269° West 104 120 1,700  Level Miami Center
02:20PM 25.6672 -80.5647 274° West 108 124 1,800 60 Climbing Miami Center
02:21PM 25.6553 -80.5847 236° Southwest 88 101 1,900  Climbing Miami Center
02:22PM 25.6394 -80.5742 149° Southeast 79 91 1,800  Descending Miami Center
02:23PM 25.6386 -80.5508 92° East 75 86 1,900 -120 Climbing Miami Center
02:24PM 25.6406 -80.5233 86° East 104 120 1,600 -360 Descending Miami Center
02:25PM 25.6400 -80.5003 92° East 79 91 1,200 -420 Descending Miami Center
02:26PM 25.6414 -80.4794 86° East 66 76 800 -420 Descending Miami Center
02:27PM 25.6425 -80.4611 86° East 52 60 400 -360 Descending Miami Center
02:29PM 25.6909 -80.5079 319° Northwest  Level FlightAware Approximate
02:36PM 25.8330 -80.7124 307° West  Level FlightAware Approximate
02:37PM 25.8562 -80.7465 307° West  Level FlightAware Approximate
02:38PM 25.8795 -80.7806 307° West  Level FlightAware Approximate
02:39PM 25.9027 -80.8148 307° West  Level FlightAware Approximate
02:40PM 25.9259 -80.8489 307° West  Level FlightAware Approximate
02:41PM 25.9492 -80.8830 307° West  Level FlightAware Approximate
02:42PM 25.9724 -80.9172 307° West  Level FlightAware Approximate
02:43PM 25.9953 -80.9516 306° West  Level FlightAware Approximate
02:44PM 26.0180 -80.9862 306° West  Level FlightAware Approximate
02:45PM 26.0407 -81.0208 306° West  Level FlightAware Approximate
02:46PM 26.0634 -81.0554 306° West  Level FlightAware Approximate
02:47PM 26.0861 -81.0900 306° West  Level FlightAware Approximate
02:48PM 26.1088 -81.1247 306° West  Level FlightAware Approximate
02:49PM 26.1314 -81.1593 306° West  Level FlightAware Approximate
02:50PM 26.1541 -81.1940 306° West  Level FlightAware Approximate
02:51PM 26.1767 -81.2287 306° West  Level FlightAware Approximate
02:52PM 26.1994 -81.2634 306° West  Level FlightAware Approximate
02:53PM 26.2220 -81.2981 306° West  Level FlightAware Approximate
02:54PM 26.2446 -81.3328 306° West  Level FlightAware Approximate
02:55PM 26.2673 -81.3676 305° West  Level FlightAware Approximate
02:56PM 26.2895 -81.4026 305° West  Level FlightAware Approximate
02:57PM 26.3117 -81.4377 305° West  Level FlightAware Approximate
02:58PM 26.3339 -81.4728 305° West  Level FlightAware Approximate
02:59PM 26.3561 -81.5079 305° West  Level FlightAware Approximate
03:00PM 26.3782 -81.5431 305° West  Level FlightAware Approximate
03:01PM 26.4004 -81.5782 305° West  Level FlightAware Approximate
03:02PM 26.4226 -81.6133 305° West  Level FlightAware Approximate
03:03PM 26.4447 -81.6485 305° West  Level FlightAware Approximate
03:04PM 26.4669 -81.6837 307° West  Level FlightAware Approximate
03:05PM 26.4899 -81.7182 307° West  Level FlightAware Approximate
03:06PM 26.5129 -81.7527 307° West  Level FlightAware Approximate
03:07PM 26.5361 -81.7870 310° West  Level FlightAware Approximate
03:08PM 26.5608 -81.8200 310° West  Level FlightAware Approximate
03:09PM 26.5833 -81.8500 310° West  Level FlightAware Approximate
03:10PM 26.5866 -81.8633 North  Level Estimated